createdAt,value
2018-03-15T00:02:01.290Z,20.94
2018-03-15T00:04:30.974Z,20.94
2018-03-15T00:06:57.727Z,20.95
2018-03-15T00:09:24.496Z,20.94
2018-03-15T00:11:51.248Z,20.94
2018-03-15T00:14:18.054Z,20.96
2018-03-15T00:16:44.818Z,20.93
2018-03-15T00:19:11.575Z,20.95
2018-03-15T00:21:38.377Z,20.94
2018-03-15T00:24:05.132Z,20.92
2018-03-15T00:26:31.883Z,20.92
2018-03-15T00:28:58.696Z,20.94
2018-03-15T00:31:25.464Z,20.92
2018-03-15T00:33:52.236Z,20.93
2018-03-15T00:36:19.028Z,20.92
2018-03-15T00:38:45.789Z,20.93
2018-03-15T00:41:12.542Z,20.92
2018-03-15T00:43:39.363Z,20.92
2018-03-15T00:46:06.092Z,20.92
2018-03-15T00:48:32.847Z,20.92
2018-03-15T00:50:59.626Z,20.92
2018-03-15T00:53:26.383Z,20.92
2018-03-15T00:55:53.145Z,20.92
2018-03-15T00:58:19.951Z,20.91
2018-03-15T01:00:46.703Z,20.91
2018-03-15T01:03:13.477Z,20.92
2018-03-15T01:05:40.286Z,20.91
2018-03-15T01:08:07.050Z,20.91
2018-03-15T01:10:33.832Z,20.91
2018-03-15T01:13:00.624Z,20.90
2018-03-15T01:15:27.399Z,20.91
2018-03-15T01:17:54.155Z,20.87
2018-03-15T01:20:20.959Z,20.89
2018-03-15T01:22:47.732Z,20.89
2018-03-15T01:25:14.502Z,20.89
2018-03-15T01:27:41.318Z,20.89
2018-03-15T01:30:08.084Z,20.89
2018-03-15T01:32:34.854Z,20.89
2018-03-15T01:35:01.640Z,20.89
2018-03-15T01:37:28.399Z,20.89
2018-03-15T01:39:55.160Z,20.88
2018-03-15T01:42:21.945Z,20.89
2018-03-15T01:44:48.700Z,20.88
2018-03-15T01:47:15.466Z,20.88
2018-03-15T01:49:42.255Z,20.87
2018-03-15T01:52:09.016Z,20.88
2018-03-15T01:54:35.789Z,20.87
2018-03-15T01:57:02.581Z,20.88
2018-03-15T01:59:29.335Z,20.87
2018-03-15T02:01:56.097Z,20.87
2018-03-15T02:04:22.883Z,20.87
2018-03-15T02:06:49.659Z,20.87
2018-03-15T02:09:16.416Z,20.88
2018-03-15T02:11:43.199Z,20.87
2018-03-15T02:14:09.974Z,20.87
2018-03-15T02:16:36.719Z,20.87
2018-03-15T02:19:03.557Z,20.88
2018-03-15T02:21:30.322Z,20.87
2018-03-15T02:23:57.085Z,20.87
2018-03-15T02:26:23.877Z,20.88
2018-03-15T02:28:50.639Z,20.87
2018-03-15T02:31:17.395Z,20.87
2018-03-15T02:33:44.180Z,20.87
2018-03-15T02:36:10.942Z,20.86
2018-03-15T02:38:37.693Z,20.88
2018-03-15T02:41:04.483Z,20.87
2018-03-15T02:43:31.243Z,20.87
2018-03-15T02:45:58.005Z,20.88
2018-03-15T02:48:24.792Z,20.87
2018-03-15T02:50:51.554Z,20.87
2018-03-15T02:53:18.387Z,20.85
2018-03-15T02:55:45.114Z,20.86
2018-03-15T02:58:11.875Z,20.85
2018-03-15T03:00:38.633Z,20.87
2018-03-15T03:03:05.455Z,20.86
2018-03-15T03:05:32.192Z,20.87
2018-03-15T03:07:58.951Z,20.87
2018-03-15T03:10:25.740Z,20.88
2018-03-15T03:12:52.497Z,20.84
2018-03-15T03:15:19.281Z,20.86
2018-03-15T03:17:46.292Z,20.84
2018-03-15T03:20:13.050Z,20.88
2018-03-15T03:22:39.809Z,20.88
2018-03-15T03:25:06.622Z,20.87
2018-03-15T03:27:33.375Z,20.86
2018-03-15T03:30:00.132Z,20.87
2018-03-15T03:32:26.920Z,20.87
2018-03-15T03:34:53.686Z,20.86
2018-03-15T03:37:20.441Z,20.87
2018-03-15T03:39:47.237Z,20.86
2018-03-15T03:42:13.991Z,20.86
2018-03-15T03:44:40.751Z,20.86
2018-03-15T03:47:07.540Z,20.86
2018-03-15T03:49:34.306Z,20.87
2018-03-15T03:52:01.069Z,20.87
2018-03-15T03:54:27.850Z,20.86
2018-03-15T03:56:54.605Z,20.88
2018-03-15T03:59:21.364Z,20.87
2018-03-15T04:01:48.160Z,20.87
2018-03-15T04:04:14.919Z,20.87
2018-03-15T04:06:41.691Z,20.88
2018-03-15T04:09:08.485Z,20.84
2018-03-15T04:11:35.242Z,20.84
2018-03-15T04:14:02.004Z,20.87
2018-03-15T04:16:28.804Z,20.86
2018-03-15T04:18:55.558Z,20.88
2018-03-15T04:21:22.329Z,20.86
2018-03-15T04:23:49.126Z,20.86
2018-03-15T04:26:15.888Z,20.85
2018-03-15T04:28:42.648Z,20.87
2018-03-15T04:31:09.448Z,20.85
2018-03-15T04:33:36.208Z,20.82
2018-03-15T04:36:02.969Z,20.87
2018-03-15T04:38:29.758Z,20.88
2018-03-15T04:40:56.515Z,20.86
2018-03-15T04:43:23.274Z,20.86
2018-03-15T04:45:50.080Z,20.87
2018-03-15T04:48:16.845Z,20.85
2018-03-15T04:50:43.613Z,20.85
2018-03-15T04:53:10.404Z,20.84
2018-03-15T04:55:37.169Z,20.84
2018-03-15T04:58:03.923Z,20.84
2018-03-15T05:00:30.721Z,20.85
2018-03-15T05:02:57.475Z,20.85
2018-03-15T05:05:24.241Z,20.85
2018-03-15T05:07:51.048Z,20.84
2018-03-15T05:10:17.817Z,20.84
2018-03-15T05:12:44.583Z,20.81
2018-03-15T05:15:11.377Z,20.81
2018-03-15T05:17:38.142Z,20.82
2018-03-15T05:20:04.904Z,20.84
2018-03-15T05:22:31.695Z,20.84
2018-03-15T05:24:58.488Z,20.84
2018-03-15T05:27:25.267Z,20.83
2018-03-15T05:29:52.045Z,20.85
2018-03-15T05:32:18.810Z,20.83
2018-03-15T05:34:45.587Z,20.84
2018-03-15T05:37:12.491Z,20.84
2018-03-15T05:39:39.230Z,20.83
2018-03-15T05:42:06.012Z,20.83
2018-03-15T05:44:32.804Z,20.83
2018-03-15T05:46:59.564Z,20.83
2018-03-15T05:49:26.331Z,20.82
2018-03-15T05:51:53.129Z,20.80
2018-03-15T05:54:19.884Z,20.80
2018-03-15T05:56:46.749Z,20.84
2018-03-15T05:59:13.544Z,20.85
2018-03-15T06:01:40.306Z,20.85
2018-03-15T06:04:07.070Z,20.85
2018-03-15T06:06:33.854Z,20.84
2018-03-15T06:09:00.688Z,20.85
2018-03-15T06:11:27.392Z,20.83
2018-03-15T06:13:54.195Z,20.81
2018-03-15T06:16:20.948Z,20.90
2018-03-15T06:18:47.727Z,20.93
2018-03-15T06:21:14.510Z,20.98
2018-03-15T06:23:41.267Z,21.00
2018-03-15T06:26:08.036Z,21.00
2018-03-15T06:28:34.830Z,20.98
2018-03-15T06:31:01.597Z,20.98
2018-03-15T06:33:28.359Z,20.98
2018-03-15T06:35:55.146Z,20.99
2018-03-15T06:38:21.916Z,21.01
2018-03-15T06:40:48.670Z,21.03
2018-03-15T06:43:15.466Z,21.06
2018-03-15T06:45:42.216Z,21.05
2018-03-15T06:48:08.973Z,21.06
2018-03-15T06:50:35.767Z,21.07
2018-03-15T06:53:02.517Z,21.09
2018-03-15T06:55:29.315Z,21.12
2018-03-15T06:57:56.059Z,21.12
2018-03-15T07:00:22.812Z,21.11
2018-03-15T07:02:49.600Z,21.12
2018-03-15T07:05:16.371Z,21.17
2018-03-15T07:07:43.157Z,21.22
2018-03-15T07:10:09.965Z,21.20
2018-03-15T07:12:36.741Z,21.19
2018-03-15T07:15:03.554Z,21.19
2018-03-15T07:17:30.272Z,21.19
2018-03-15T07:19:57.059Z,21.19
2018-03-15T07:22:23.865Z,21.20
2018-03-15T07:24:50.638Z,21.21
2018-03-15T07:27:17.411Z,21.22
2018-03-15T07:29:44.173Z,21.20
2018-03-15T07:32:10.961Z,21.21
2018-03-15T07:34:37.753Z,21.22
2018-03-15T07:37:04.526Z,21.25
2018-03-15T07:39:31.295Z,21.28
2018-03-15T07:41:58.094Z,21.30
2018-03-15T07:44:24.869Z,21.29
2018-03-15T07:46:51.637Z,21.28
2018-03-15T07:49:18.448Z,21.26
2018-03-15T07:51:45.222Z,21.25
2018-03-15T07:54:11.996Z,21.25
2018-03-15T07:56:38.789Z,21.27
2018-03-15T07:59:05.554Z,21.29
2018-03-15T08:01:32.333Z,21.29
2018-03-15T08:03:59.139Z,21.29
2018-03-15T08:06:25.913Z,21.25
2018-03-15T08:08:52.666Z,21.28
2018-03-15T08:11:19.468Z,21.28
2018-03-15T08:13:46.224Z,21.26
2018-03-15T08:16:12.990Z,21.25
2018-03-15T08:18:39.785Z,21.25
2018-03-15T08:21:06.563Z,21.25
2018-03-15T08:23:33.326Z,21.24
2018-03-15T08:26:02.930Z,21.27
2018-03-15T08:28:29.712Z,21.23
2018-03-15T08:30:56.474Z,21.24
2018-03-15T08:33:23.297Z,21.24
2018-03-15T08:35:50.040Z,21.26
2018-03-15T08:38:16.814Z,21.25
2018-03-15T08:40:43.643Z,21.26
2018-03-15T08:43:10.411Z,21.25
2018-03-15T08:45:37.245Z,21.26
2018-03-15T08:48:03.994Z,21.25
2018-03-15T08:50:30.787Z,21.26
2018-03-15T08:52:57.601Z,21.21
2018-03-15T08:55:24.402Z,21.23
2018-03-15T08:57:51.177Z,21.24
2018-03-15T09:00:17.937Z,21.26
2018-03-15T09:02:44.742Z,21.27
2018-03-15T09:05:11.500Z,21.28
2018-03-15T09:07:38.266Z,21.26
2018-03-15T09:10:05.059Z,21.25
2018-03-15T09:12:31.823Z,21.24
2018-03-15T09:14:58.571Z,21.21
2018-03-15T09:17:25.338Z,21.19
2018-03-15T09:19:52.091Z,21.18
2018-03-15T09:22:18.846Z,21.18
2018-03-15T09:24:45.632Z,21.17
2018-03-15T09:27:12.410Z,21.18
2018-03-15T09:29:39.184Z,21.18
2018-03-15T09:32:05.976Z,21.18
2018-03-15T09:34:32.820Z,21.21
2018-03-15T09:36:59.511Z,21.23
2018-03-15T09:39:26.300Z,21.25
2018-03-15T09:41:55.768Z,21.29
2018-03-15T09:44:22.515Z,21.29
2018-03-15T09:46:49.326Z,21.34
2018-03-15T09:49:16.075Z,21.35
2018-03-15T09:51:42.839Z,21.37
2018-03-15T09:54:09.615Z,21.37
2018-03-15T09:56:36.366Z,21.38
2018-03-15T09:59:03.101Z,21.37
2018-03-15T10:01:29.875Z,21.40
2018-03-15T10:03:56.633Z,21.38
2018-03-15T10:06:23.414Z,21.41
2018-03-15T10:08:50.203Z,21.39
2018-03-15T10:11:16.963Z,21.36
2018-03-15T10:13:43.709Z,21.35
2018-03-15T10:16:10.488Z,21.32
2018-03-15T10:18:37.253Z,21.32
2018-03-15T10:21:03.989Z,21.32
2018-03-15T10:23:30.794Z,21.32
2018-03-15T10:25:57.553Z,21.32
2018-03-15T10:28:24.336Z,21.33
2018-03-15T10:30:51.107Z,21.33
2018-03-15T10:33:35.803Z,21.32
2018-03-15T10:36:02.608Z,21.33
2018-03-15T10:38:29.379Z,21.33
2018-03-15T10:40:56.159Z,21.29
2018-03-15T10:43:22.950Z,21.27
2018-03-15T10:45:49.715Z,21.30
2018-03-15T10:48:16.467Z,21.33
2018-03-15T10:50:43.257Z,21.33
2018-03-15T10:53:10.028Z,21.32
2018-03-15T10:55:36.778Z,21.30
2018-03-15T10:58:03.562Z,21.29
2018-03-15T11:00:48.711Z,21.29
2018-03-15T11:03:18.449Z,21.30
2018-03-15T11:06:03.443Z,21.34
2018-03-15T11:08:30.259Z,21.36
2018-03-15T11:10:57.003Z,21.35
2018-03-15T11:13:23.771Z,21.37
2018-03-15T11:15:50.613Z,21.36
2018-03-15T11:18:17.372Z,21.36
2018-03-15T11:20:44.137Z,21.36
2018-03-15T11:23:10.929Z,21.36
2018-03-15T11:25:37.685Z,21.36
2018-03-15T11:28:04.446Z,21.37
2018-03-15T11:30:31.228Z,21.37
2018-03-15T11:32:57.991Z,21.37
2018-03-15T11:35:24.767Z,21.37
2018-03-15T11:37:51.560Z,21.37
2018-03-15T11:40:18.324Z,21.39
2018-03-15T11:42:45.087Z,21.40
2018-03-15T11:45:11.888Z,21.40
2018-03-15T11:47:38.646Z,21.40
2018-03-15T11:50:05.413Z,21.39
2018-03-15T11:52:32.220Z,21.42
2018-03-15T11:54:59.002Z,21.47
2018-03-15T11:57:25.772Z,21.49
2018-03-15T11:59:52.575Z,21.50
2018-03-15T12:02:19.344Z,21.43
2018-03-15T12:04:46.095Z,21.47
2018-03-15T12:07:12.885Z,21.48
2018-03-15T12:09:39.623Z,21.47
2018-03-15T12:12:06.372Z,21.46
2018-03-15T12:14:33.169Z,21.45
2018-03-15T12:16:59.932Z,21.44
2018-03-15T12:19:26.702Z,21.41
2018-03-15T12:21:53.489Z,21.42
2018-03-15T12:24:20.260Z,21.44
2018-03-15T12:26:47.040Z,21.45
2018-03-15T12:29:13.840Z,21.44
2018-03-15T12:31:40.612Z,21.46
2018-03-15T12:34:07.361Z,21.47
2018-03-15T12:36:34.147Z,21.52
2018-03-15T12:39:00.899Z,21.50
2018-03-15T12:41:27.653Z,21.50
2018-03-15T12:43:54.434Z,21.51
2018-03-15T12:46:21.193Z,21.49
2018-03-15T12:48:47.950Z,21.50
2018-03-15T12:51:14.738Z,21.51
2018-03-15T12:53:41.498Z,21.50
2018-03-15T12:56:08.251Z,21.49
2018-03-15T12:58:35.032Z,21.50
2018-03-15T13:01:01.791Z,21.49
2018-03-15T13:03:28.537Z,21.49
2018-03-15T13:05:55.309Z,21.50
2018-03-15T13:08:22.060Z,21.49
2018-03-15T13:10:48.814Z,21.45
2018-03-15T13:13:15.588Z,21.47
2018-03-15T13:15:42.362Z,21.48
2018-03-15T13:18:09.111Z,21.51
2018-03-15T13:20:35.886Z,21.51
2018-03-15T13:23:02.637Z,21.50
2018-03-15T13:25:29.393Z,21.48
2018-03-15T13:27:56.187Z,21.49
2018-03-15T13:30:22.997Z,21.50
2018-03-15T13:32:49.749Z,21.52
2018-03-15T13:35:16.499Z,21.51
2018-03-15T13:37:43.300Z,21.52
2018-03-15T13:40:10.109Z,21.52
2018-03-15T13:42:36.855Z,21.51
2018-03-15T13:45:03.684Z,21.51
2018-03-15T13:47:30.419Z,21.51
2018-03-15T13:49:57.212Z,21.51
2018-03-15T13:52:24.033Z,21.51
2018-03-15T13:54:50.802Z,21.51
2018-03-15T13:57:17.555Z,21.51
2018-03-15T13:59:44.351Z,21.51
2018-03-15T14:02:11.105Z,21.52
2018-03-15T14:04:37.864Z,21.52
2018-03-15T14:07:04.661Z,21.51
2018-03-15T14:09:31.460Z,21.53
2018-03-15T14:11:58.206Z,21.51
2018-03-15T14:14:25.015Z,21.50
2018-03-15T14:16:51.780Z,21.50
2018-03-15T14:19:18.532Z,21.49
2018-03-15T14:21:45.346Z,21.50
2018-03-15T14:24:12.092Z,21.51
2018-03-15T14:26:38.892Z,21.50
2018-03-15T14:29:05.651Z,21.48
2018-03-15T14:31:32.463Z,21.48
2018-03-15T14:33:59.218Z,21.50
2018-03-15T14:36:26.018Z,21.49
2018-03-15T14:38:52.836Z,21.48
2018-03-15T14:41:19.601Z,21.50
2018-03-15T14:43:46.401Z,21.51
2018-03-15T14:46:13.203Z,21.53
2018-03-15T14:48:39.957Z,21.53
2018-03-15T14:51:06.750Z,21.49
2018-03-15T14:53:33.511Z,21.52
2018-03-15T14:56:01.264Z,21.51
2018-03-15T14:58:27.915Z,21.51
2018-03-15T15:00:54.729Z,21.49
2018-03-15T15:03:21.492Z,21.47
2018-03-15T15:05:48.292Z,21.45
2018-03-15T15:08:15.214Z,21.46
2018-03-15T15:10:41.991Z,21.43
2018-03-15T15:13:08.793Z,21.43
2018-03-15T15:15:35.553Z,21.43
2018-03-15T15:18:02.349Z,21.41
2018-03-15T15:20:29.110Z,21.40
2018-03-15T15:22:55.930Z,21.38
2018-03-15T15:25:22.681Z,21.38
2018-03-15T15:27:49.474Z,21.41
2018-03-15T15:30:16.227Z,21.39
2018-03-15T15:32:43.023Z,21.37
2018-03-15T15:35:09.780Z,21.35
2018-03-15T15:37:36.524Z,21.30
2018-03-15T15:40:03.333Z,21.33
2018-03-15T15:42:30.099Z,21.31
2018-03-15T15:44:56.870Z,21.30
2018-03-15T15:47:23.622Z,21.27
2018-03-15T15:49:50.384Z,21.27
2018-03-15T15:52:17.138Z,21.27
2018-03-15T15:54:43.975Z,21.25
2018-03-15T15:57:10.730Z,21.24
2018-03-15T15:59:37.501Z,21.23
2018-03-15T16:02:04.284Z,21.22
2018-03-15T16:04:31.091Z,21.21
2018-03-15T16:06:57.849Z,21.21
2018-03-15T16:09:24.652Z,21.21
2018-03-15T16:11:51.416Z,21.20
2018-03-15T16:14:18.173Z,21.18
2018-03-15T16:16:44.921Z,21.18
2018-03-15T16:19:11.679Z,21.15
2018-03-15T16:21:38.464Z,21.16
2018-03-15T16:24:05.215Z,21.14
2018-03-15T16:26:31.981Z,21.13
2018-03-15T16:28:58.775Z,21.12
2018-03-15T16:31:25.580Z,21.12
2018-03-15T16:33:52.387Z,21.09
2018-03-15T16:36:19.136Z,21.12
2018-03-15T16:38:46.076Z,21.11
2018-03-15T16:41:12.839Z,21.10
2018-03-15T16:43:39.657Z,21.10
2018-03-15T16:46:06.420Z,21.09
2018-03-15T16:48:33.170Z,21.13
2018-03-15T16:50:59.919Z,21.10
2018-03-15T16:53:26.683Z,21.10
2018-03-15T16:55:53.434Z,21.10
2018-03-15T16:58:20.241Z,21.11
2018-03-15T17:00:47.005Z,21.09
2018-03-15T17:03:13.774Z,21.09
2018-03-15T17:05:40.522Z,21.08
2018-03-15T17:08:07.274Z,21.06
2018-03-15T17:10:34.058Z,21.08
2018-03-15T17:13:00.804Z,21.10
2018-03-15T17:15:27.568Z,21.13
2018-03-15T17:17:54.364Z,21.14
2018-03-15T17:20:21.129Z,21.12
2018-03-15T17:22:47.882Z,21.13
2018-03-15T17:25:14.659Z,21.19
2018-03-15T17:27:41.432Z,21.17
2018-03-15T17:30:09.789Z,21.17
2018-03-15T17:32:36.600Z,21.12
2018-03-15T17:35:03.416Z,21.12
2018-03-15T17:37:30.242Z,21.11
2018-03-15T17:39:57.099Z,21.12
2018-03-15T17:42:23.908Z,21.13
2018-03-15T17:44:50.684Z,21.15
2018-03-15T17:47:17.465Z,21.19
2018-03-15T17:49:44.218Z,21.20
2018-03-15T17:52:10.988Z,21.20
2018-03-15T17:54:37.747Z,21.15
2018-03-15T17:57:04.519Z,21.15
2018-03-15T17:59:31.291Z,21.14
2018-03-15T18:01:58.068Z,21.18
2018-03-15T18:04:24.820Z,21.15
2018-03-15T18:06:51.592Z,21.13
2018-03-15T18:09:18.388Z,21.13
2018-03-15T18:11:45.207Z,21.14
2018-03-15T18:14:11.977Z,21.13
2018-03-15T18:16:38.799Z,21.11
2018-03-15T18:19:05.572Z,21.10
2018-03-15T18:21:32.345Z,21.09
2018-03-15T18:23:59.118Z,21.09
2018-03-15T18:26:25.893Z,21.11
2018-03-15T18:28:52.679Z,21.11
2018-03-15T18:31:19.449Z,21.08
2018-03-15T18:33:46.280Z,21.09
2018-03-15T18:36:13.072Z,21.12
2018-03-15T18:38:39.864Z,21.19
2018-03-15T18:41:06.749Z,21.22
2018-03-15T18:43:33.516Z,21.21
2018-03-15T18:46:00.322Z,21.18
2018-03-15T18:48:27.070Z,21.15
2018-03-15T18:50:53.905Z,21.12
2018-03-15T18:53:20.724Z,21.10
2018-03-15T18:55:47.503Z,21.08
2018-03-15T18:58:14.292Z,21.11
2018-03-15T19:00:41.104Z,21.16
2018-03-15T19:03:07.885Z,21.15
2018-03-15T19:05:34.680Z,21.12
2018-03-15T19:08:04.137Z,21.11
2018-03-15T19:10:30.910Z,21.10
2018-03-15T19:12:57.734Z,21.09
2018-03-15T19:15:24.573Z,21.08
2018-03-15T19:17:51.290Z,21.08
2018-03-15T19:20:18.114Z,21.07
2018-03-15T19:22:46.778Z,21.07
2018-03-15T19:25:13.504Z,21.07
2018-03-15T19:27:40.284Z,21.06
2018-03-15T19:30:07.096Z,21.06
2018-03-15T19:32:33.932Z,21.05
2018-03-15T19:35:00.745Z,21.05
2018-03-15T19:37:27.493Z,21.04
2018-03-15T19:39:54.314Z,21.05
2018-03-15T19:42:21.094Z,21.04
2018-03-15T19:44:48.890Z,21.04
2018-03-15T19:47:15.673Z,21.07
2018-03-15T19:49:42.440Z,21.08
2018-03-15T19:52:09.273Z,21.07
2018-03-15T19:54:36.209Z,21.06
2018-03-15T19:57:02.921Z,21.05
2018-03-15T19:59:29.700Z,21.05
2018-03-15T20:01:56.480Z,21.03
2018-03-15T20:04:23.431Z,21.02
2018-03-15T20:06:50.143Z,21.01
2018-03-15T20:09:16.953Z,21.00
2018-03-15T20:13:50.232Z,22.08
2018-03-15T20:16:16.993Z,22.36
2018-03-15T20:18:43.768Z,22.43
2018-03-15T20:21:10.534Z,22.53
2018-03-15T20:26:16.733Z,21.90
2018-03-15T20:28:49.364Z,21.37
2018-03-15T20:31:17.310Z,21.18
2018-03-15T20:34:02.614Z,21.12
2018-03-15T20:36:29.438Z,21.10
2018-03-15T20:38:56.194Z,21.08
2018-03-15T20:41:31.735Z,21.09
2018-03-15T20:43:58.502Z,21.07
2018-03-15T20:46:27.942Z,21.06
2018-03-15T20:49:12.805Z,21.07
2018-03-15T20:51:39.568Z,21.06
2018-03-15T20:54:06.361Z,21.06
2018-03-15T20:56:33.122Z,21.06
2018-03-15T20:58:59.882Z,21.02
2018-03-15T21:01:26.649Z,21.02
2018-03-15T21:03:53.415Z,21.02
2018-03-15T21:06:20.205Z,21.03
2018-03-15T21:08:46.965Z,21.01
2018-03-15T21:11:13.765Z,21.02
2018-03-15T21:13:40.526Z,21.03
2018-03-15T21:16:07.331Z,21.03
2018-03-15T21:18:34.103Z,21.01
2018-03-15T21:21:00.865Z,21.01
2018-03-15T21:23:27.622Z,21.00
2018-03-15T21:25:54.423Z,20.99
2018-03-15T21:28:21.238Z,21.00
2018-03-15T21:30:47.990Z,21.00
2018-03-15T21:33:14.751Z,20.99
2018-03-15T21:35:41.508Z,20.98
2018-03-15T21:38:08.306Z,20.98
2018-03-15T21:40:35.068Z,20.97
2018-03-15T21:43:01.869Z,20.96
2018-03-15T21:45:28.658Z,20.96
2018-03-15T21:47:55.464Z,20.97
2018-03-15T21:50:22.224Z,20.97
2018-03-15T21:52:48.988Z,20.96
2018-03-15T21:55:15.743Z,20.96
2018-03-15T21:57:42.507Z,20.94
2018-03-15T22:00:09.311Z,20.95
2018-03-15T22:02:36.066Z,20.95
2018-03-15T22:05:02.963Z,20.95
2018-03-15T22:07:29.740Z,20.96
2018-03-15T22:09:56.491Z,20.95
2018-03-15T22:12:23.251Z,20.96
2018-03-15T22:14:50.047Z,20.95
2018-03-15T22:17:16.803Z,20.95
2018-03-15T22:19:43.608Z,20.95
2018-03-15T22:22:10.370Z,20.96
2018-03-15T22:24:37.148Z,20.96
2018-03-15T22:27:03.948Z,20.98
2018-03-15T22:29:30.712Z,20.98
2018-03-15T22:31:57.511Z,20.97
2018-03-15T22:34:24.268Z,20.97
2018-03-15T22:36:51.031Z,20.96
2018-03-15T22:39:17.787Z,20.96
2018-03-15T22:41:44.588Z,20.96
2018-03-15T22:44:11.414Z,20.96
2018-03-15T22:46:38.174Z,20.95
2018-03-15T22:49:04.923Z,20.95
2018-03-15T22:51:31.737Z,20.94
2018-03-15T22:53:58.543Z,20.94
2018-03-15T22:56:25.335Z,20.93
2018-03-15T22:58:52.094Z,20.93
2018-03-15T23:01:18.852Z,20.93
2018-03-15T23:03:45.611Z,20.92
2018-03-15T23:06:12.371Z,20.93
2018-03-15T23:08:39.130Z,20.92
2018-03-15T23:11:05.930Z,20.92
2018-03-15T23:13:32.686Z,20.92
2018-03-15T23:15:59.450Z,20.92
2018-03-15T23:18:26.214Z,20.91
2018-03-15T23:20:52.985Z,20.91
2018-03-15T23:23:19.744Z,20.92
2018-03-15T23:25:46.512Z,20.92
2018-03-15T23:28:13.265Z,20.92
2018-03-15T23:30:40.031Z,20.91
2018-03-15T23:33:06.804Z,20.92
2018-03-15T23:35:33.614Z,20.92
2018-03-15T23:38:00.363Z,20.92
2018-03-15T23:40:27.163Z,20.91
2018-03-15T23:42:53.925Z,20.92
2018-03-15T23:45:20.687Z,20.91
2018-03-15T23:47:47.491Z,20.92
2018-03-15T23:50:14.257Z,20.91
2018-03-15T23:52:41.024Z,20.92
2018-03-15T23:55:07.838Z,20.92
2018-03-15T23:57:34.599Z,20.91
